Time;durP1;ratioP1;P1;durP2;ratioP2;P2;SDS_P1;SDS_P2;PMS_P1;PMS_P2;Temp;Humidity;BMP_temperature;BMP_pressure;BME280_temperature;BME280_humidity;BME280_pressure;Samples;Min_cycle;Max_cycle;Signal;HPM_P1;HPM_P2
2023/10/03 00:01:22;;;;;;;17.13;12.37;;;;;;;;;;5052908;28;20468;-78
2023/10/03 00:03:52;;;;;;;19.57;12.60;;;;;;;;;;5056216;28;20565;-79
2023/10/03 00:06:18;;;;;;;15.53;11.37;;;;;;;;;;5054592;28;20790;-79
2023/10/03 00:08:45;;;;;;;23.63;14.33;;;;;;;;;;5056131;28;20505;-79
2023/10/03 00:11:22;;;;;;;22.23;13.60;;;;;;;;;;5056026;28;20411;-79
2023/10/03 00:13:50;;;;;;;21.03;13.07;;;;;;;;;;5056233;28;20407;-83
2023/10/03 00:16:16;;;;;;;23.30;14.03;;;;;;;;;;5056050;28;20485;-80
2023/10/03 00:18:42;;;;;;;21.50;13.80;;;;;;;;;;5056023;28;20406;-81
2023/10/03 00:21:08;;;;;;;19.33;13.80;;;;;;;;;;5055562;28;20768;-80
2023/10/03 00:23:34;;;;;;;18.90;12.80;;;;;;;;;;5054573;28;20477;-79
2023/10/03 00:26:01;;;;;;;20.23;13.10;;;;;;;;;;5055808;28;20403;-78
2023/10/03 00:28:27;;;;;;;23.20;13.20;;;;;;;;;;5055835;28;20418;-78
2023/10/03 00:30:53;;;;;;;23.87;13.80;;;;;;;;;;5055339;28;20967;-78
2023/10/03 00:33:23;;;;;;;20.83;13.73;;;;;;;;;;5054336;28;20909;-78
2023/10/03 00:35:50;;;;;;;24.17;12.97;;;;;;;;;;5054760;28;20464;-79
2023/10/03 00:38:15;;;;;;;21.50;14.10;;;;;;;;;;5055557;28;20737;-81
2023/10/03 00:40:41;;;;;;;20.50;13.20;;;;;;;;;;5055361;28;20557;-79
2023/10/03 00:43:07;;;;;;;20.87;13.20;;;;;;;;;;5055281;28;20294;-79
2023/10/03 00:45:34;;;;;;;18.70;11.60;;;;;;;;;;5055507;28;20499;-78
2023/10/03 00:48:00;;;;;;;18.40;13.10;;;;;;;;;;5054113;28;20425;-84
2023/10/03 00:50:27;;;;;;;23.47;14.67;;;;;;;;;;5054964;28;20490;-79
2023/10/03 00:52:57;;;;;;;21.17;12.17;;;;;;;;;;5055399;28;20930;-82
2023/10/03 00:55:27;;;;;;;15.93;12.33;;;;;;;;;;5055346;28;20459;-80
2023/10/03 01:00:39;;;;;;;17.20;12.20;;;;;;;;;;5055100;28;20466;-81
2023/10/03 01:03:09;;;;;;;20.87;12.37;;;;;;;;;;5053756;28;20469;-80
2023/10/03 01:05:35;;;;;;;18.37;12.07;;;;;;;;;;5054668;28;20843;-80
2023/10/03 01:08:03;;;;;;;19.80;11.40;;;;;;;;;;5055090;28;20879;-80
2023/10/03 01:10:29;;;;;;;18.97;11.67;;;;;;;;;;5055045;28;20426;-79
2023/10/03 01:12:55;;;;;;;17.63;11.40;;;;;;;;;;5054351;28;20417;-79
2023/10/03 01:15:21;;;;;;;15.80;11.37;;;;;;;;;;5051585;28;20521;-79
2023/10/03 01:17:53;;;;;;;21.00;13.37;;;;;;;;;;5066725;28;20471;-80
2023/10/03 01:20:29;;;;;;;20.67;13.00;;;;;;;;;;5057942;28;20417;-80
2023/10/03 01:22:56;;;;;;;17.93;13.63;;;;;;;;;;5059799;28;20461;-80
2023/10/03 01:25:27;;;;;;;21.67;13.33;;;;;;;;;;5074869;28;20429;-81
2023/10/03 01:27:53;;;;;;;18.80;11.37;;;;;;;;;;5074780;28;20805;-79
2023/10/03 01:30:19;;;;;;;20.57;11.90;;;;;;;;;;5071946;28;20413;-85
2023/10/03 01:32:53;;;;;;;17.83;11.50;;;;;;;;;;5054696;28;20442;-79
2023/10/03 01:35:22;;;;;;;17.17;12.17;;;;;;;;;;5054376;28;20881;-80
2023/10/03 01:37:49;;;;;;;19.17;11.90;;;;;;;;;;5054722;28;20410;-85
2023/10/03 01:40:16;;;;;;;14.67;10.10;;;;;;;;;;5058725;28;20441;-79
2023/10/03 01:42:46;;;;;;;18.60;11.17;;;;;;;;;;5054506;28;20444;-78
2023/10/03 01:45:13;;;;;;;16.83;10.50;;;;;;;;;;5054513;28;20457;-78
2023/10/03 01:47:45;;;;;;;15.47;10.97;;;;;;;;;;5053199;28;20403;-79
2023/10/03 01:50:11;;;;;;;26.77;13.17;;;;;;;;;;5054149;28;20905;-80
2023/10/03 01:52:39;;;;;;;15.97;10.43;;;;;;;;;;5054376;28;20405;-79
2023/10/03 01:55:05;;;;;;;18.23;11.00;;;;;;;;;;5054272;28;20510;-79
2023/10/03 01:57:32;;;;;;;18.03;12.50;;;;;;;;;;5054222;28;20496;-79
2023/10/03 01:59:59;;;;;;;18.47;12.23;;;;;;;;;;5053891;28;20467;-79
2023/10/03 02:02:24;;;;;;;21.10;12.10;;;;;;;;;;5054071;28;20442;-79
2023/10/03 02:04:51;;;;;;;18.33;10.63;;;;;;;;;;5053665;28;20496;-79
2023/10/03 02:07:18;;;;;;;20.47;11.17;;;;;;;;;;5054107;28;20768;-83
2023/10/03 02:09:43;;;;;;;16.77;11.30;;;;;;;;;;5052782;28;20443;-79
2023/10/03 02:12:10;;;;;;;16.90;10.63;;;;;;;;;;5052608;28;20410;-79
2023/10/03 02:14:39;;;;;;;15.20;11.20;;;;;;;;;;5053874;28;20169;-81
2023/10/03 02:17:05;;;;;;;24.27;11.50;;;;;;;;;;5053848;28;20409;-85
2023/10/03 02:19:34;;;;;;;18.23;11.53;;;;;;;;;;5053337;28;20405;-79
2023/10/03 02:22:01;;;;;;;21.20;12.33;;;;;;;;;;5053793;28;20526;-84
2023/10/03 02:24:27;;;;;;;19.73;11.13;;;;;;;;;;5053559;28;20559;-80
2023/10/03 02:26:53;;;;;;;24.77;11.30;;;;;;;;;;5050515;28;20658;-79
2023/10/03 02:29:19;;;;;;;16.10;11.50;;;;;;;;;;5053507;28;20957;-81
2023/10/03 02:31:45;;;;;;;20.20;11.10;;;;;;;;;;5039605;28;20175;-80
2023/10/03 02:34:11;;;;;;;16.20;11.23;;;;;;;;;;5033232;28;20413;-79
2023/10/03 02:36:37;;;;;;;19.03;11.90;;;;;;;;;;5040276;28;20412;-80
2023/10/03 02:39:06;;;;;;;17.00;10.60;;;;;;;;;;5032962;28;20423;-79
2023/10/03 02:41:33;;;;;;;21.30;11.20;;;;;;;;;;5042094;28;20516;-83
2023/10/03 02:43:59;;;;;;;18.90;11.80;;;;;;;;;;5044511;28;20519;-80
2023/10/03 02:46:26;;;;;;;20.57;10.30;;;;;;;;;;5050412;28;20407;-79
2023/10/03 02:48:55;;;;;;;22.17;11.63;;;;;;;;;;5042128;28;20197;-81
2023/10/03 02:51:21;;;;;;;16.50;11.93;;;;;;;;;;5049731;28;20419;-79
2023/10/03 02:53:47;;;;;;;16.73;11.07;;;;;;;;;;5035033;28;20912;-80
2023/10/03 02:56:15;;;;;;;14.40;10.20;;;;;;;;;;5031280;28;20183;-81
2023/10/03 02:58:41;;;;;;;17.17;10.90;;;;;;;;;;5032087;28;20408;-80
2023/10/03 03:01:07;;;;;;;17.93;10.37;;;;;;;;;;5032974;28;20989;-86
2023/10/03 03:03:33;;;;;;;15.03;9.73;;;;;;;;;;5032725;28;20212;-79
2023/10/03 03:06:02;;;;;;;18.83;10.03;;;;;;;;;;5033121;28;20167;-80
2023/10/03 03:08:29;;;;;;;16.87;11.47;;;;;;;;;;5033111;28;20421;-85
2023/10/03 03:11:00;;;;;;;17.13;10.00;;;;;;;;;;5033117;28;20893;-80
2023/10/03 03:13:27;;;;;;;17.23;10.77;;;;;;;;;;5033088;28;20407;-80
2023/10/03 03:15:59;;;;;;;16.67;9.70;;;;;;;;;;5032945;28;20414;-85
2023/10/03 03:18:31;;;;;;;20.53;10.83;;;;;;;;;;5032854;28;20476;-78
2023/10/03 03:20:58;;;;;;;16.00;11.70;;;;;;;;;;5032867;28;20771;-78
2023/10/03 03:23:31;;;;;;;19.53;11.10;;;;;;;;;;5032896;28;20458;-79
2023/10/03 03:28:44;;;;;;;15.43;10.10;;;;;;;;;;5033161;28;20399;-83
2023/10/03 03:31:20;;;;;;;13.93;9.13;;;;;;;;;;5032804;28;20507;-80
2023/10/03 03:33:46;;;;;;;18.67;10.17;;;;;;;;;;5032445;28;20421;-79
2023/10/03 03:36:17;;;;;;;15.50;9.73;;;;;;;;;;5033285;28;20408;-84
2023/10/03 03:38:43;;;;;;;15.97;9.73;;;;;;;;;;5036871;28;20464;-79
2023/10/03 03:41:09;;;;;;;15.23;9.60;;;;;;;;;;5036826;28;20438;-79
2023/10/03 03:43:36;;;;;;;17.27;10.10;;;;;;;;;;5036768;28;20509;-83
2023/10/03 03:46:02;;;;;;;13.80;9.97;;;;;;;;;;5036767;28;20201;-78
2023/10/03 03:48:28;;;;;;;14.60;9.57;;;;;;;;;;5036325;28;20446;-79
2023/10/03 03:50:54;;;;;;;14.50;9.23;;;;;;;;;;5018924;28;20458;-78
2023/10/03 03:53:21;;;;;;;13.50;9.13;;;;;;;;;;5036567;28;20411;-79
2023/10/03 03:55:49;;;;;;;16.87;8.90;;;;;;;;;;5036483;28;20451;-83
2023/10/03 03:58:18;;;;;;;12.77;8.40;;;;;;;;;;5036590;28;20413;-82
2023/10/03 04:00:47;;;;;;;18.63;9.93;;;;;;;;;;5036355;28;20463;-85
2023/10/03 04:03:14;;;;;;;13.43;9.40;;;;;;;;;;5036424;28;20544;-85
2023/10/03 04:05:39;;;;;;;16.20;9.60;;;;;;;;;;5036054;28;20403;-84
2023/10/03 04:08:06;;;;;;;13.10;7.90;;;;;;;;;;5036403;28;20417;-80
2023/10/03 04:10:33;;;;;;;16.83;10.67;;;;;;;;;;5036350;28;20168;-79
2023/10/03 04:13:00;;;;;;;11.73;7.73;;;;;;;;;;5036170;28;20430;-81
2023/10/03 04:15:25;;;;;;;13.90;8.13;;;;;;;;;;5036243;28;20494;-79
2023/10/03 04:17:51;;;;;;;16.70;9.03;;;;;;;;;;5025306;28;20939;-80
2023/10/03 04:20:30;;;;;;;15.13;9.10;;;;;;;;;;5035872;28;20409;-84
2023/10/03 04:22:57;;;;;;;16.07;9.43;;;;;;;;;;5035899;28;20400;-79
2023/10/03 04:25:22;;;;;;;15.60;9.37;;;;;;;;;;5035980;28;20429;-80
2023/10/03 04:27:49;;;;;;;12.00;8.50;;;;;;;;;;5035911;28;20419;-83
2023/10/03 04:30:16;;;;;;;15.37;8.70;;;;;;;;;;5036005;28;20462;-85
2023/10/03 04:32:42;;;;;;;14.10;8.40;;;;;;;;;;5035918;28;20821;-85
2023/10/03 04:35:12;;;;;;;16.33;9.07;;;;;;;;;;5035402;28;20434;-79
2023/10/03 04:37:42;;;;;;;12.37;8.70;;;;;;;;;;5035643;28;20413;-78
2023/10/03 04:40:12;;;;;;;12.60;8.63;;;;;;;;;;5035662;28;20453;-79
2023/10/03 04:42:38;;;;;;;15.57;8.10;;;;;;;;;;5035717;28;20418;-79
2023/10/03 04:45:07;;;;;;;13.00;8.13;;;;;;;;;;5035497;28;20462;-79
2023/10/03 04:47:34;;;;;;;14.20;8.70;;;;;;;;;;5034736;28;20195;-84
2023/10/03 04:50:03;;;;;;;15.03;8.03;;;;;;;;;;5034739;28;20438;-79
2023/10/03 04:52:28;;;;;;;15.90;9.10;;;;;;;;;;5035476;28;20402;-79
2023/10/03 04:54:54;;;;;;;13.37;8.40;;;;;;;;;;5035465;28;20976;-82
2023/10/03 04:57:20;;;;;;;14.20;8.67;;;;;;;;;;5035589;28;20407;-79
2023/10/03 04:59:47;;;;;;;12.03;7.57;;;;;;;;;;5035203;28;20458;-79
2023/10/03 05:02:13;;;;;;;16.60;9.50;;;;;;;;;;5035426;28;20418;-83
2023/10/03 05:04:40;;;;;;;11.50;7.80;;;;;;;;;;5034911;28;20469;-81
2023/10/03 05:07:07;;;;;;;18.27;9.70;;;;;;;;;;5035301;28;20505;-82
2023/10/03 05:09:33;;;;;;;15.70;8.17;;;;;;;;;;5035273;28;20421;-82
2023/10/03 05:11:59;;;;;;;15.43;8.23;;;;;;;;;;5035094;28;20415;-79
2023/10/03 05:14:28;;;;;;;19.70;10.53;;;;;;;;;;5035068;28;20410;-78
2023/10/03 05:16:54;;;;;;;14.67;8.77;;;;;;;;;;5035101;28;20171;-79
2023/10/03 05:19:21;;;;;;;16.40;8.87;;;;;;;;;;5034670;28;20417;-80
2023/10/03 05:21:47;;;;;;;14.90;8.10;;;;;;;;;;5033653;28;20430;-83
2023/10/03 05:24:15;;;;;;;11.77;7.30;;;;;;;;;;5034861;28;20827;-79
2023/10/03 05:26:41;;;;;;;14.47;9.17;;;;;;;;;;5034952;28;20469;-79
2023/10/03 05:29:07;;;;;;;11.87;7.10;;;;;;;;;;5034885;28;20402;-80
2023/10/03 05:31:40;;;;;;;16.10;8.07;;;;;;;;;;5034791;28;20415;-80
2023/10/03 05:34:07;;;;;;;13.57;7.77;;;;;;;;;;5034499;28;20406;-80
2023/10/03 05:36:33;;;;;;;18.90;8.03;;;;;;;;;;5034727;28;20419;-80
2023/10/03 05:38:59;;;;;;;15.73;8.70;;;;;;;;;;5033396;28;20791;-79
2023/10/03 05:41:25;;;;;;;13.00;8.80;;;;;;;;;;5034580;28;20172;-82
2023/10/03 05:43:52;;;;;;;13.53;8.63;;;;;;;;;;5034597;28;20463;-79
2023/10/03 05:46:18;;;;;;;12.20;8.57;;;;;;;;;;5034538;28;20411;-80
2023/10/03 05:48:44;;;;;;;14.83;8.30;;;;;;;;;;5034114;28;20391;-81
2023/10/03 05:51:10;;;;;;;12.93;8.10;;;;;;;;;;5034415;28;20926;-79
2023/10/03 05:53:36;;;;;;;15.17;8.80;;;;;;;;;;5034360;28;20411;-82
2023/10/03 05:56:04;;;;;;;15.73;7.83;;;;;;;;;;5034348;28;20490;-80
2023/10/03 05:58:30;;;;;;;18.27;9.50;;;;;;;;;;5033113;28;20418;-79
2023/10/03 06:00:56;;;;;;;15.03;8.27;;;;;;;;;;5033802;28;20472;-84
2023/10/03 06:03:22;;;;;;;17.03;8.73;;;;;;;;;;5033788;28;20466;-81
2023/10/03 06:05:50;;;;;;;10.90;6.87;;;;;;;;;;5032772;28;20434;-81
2023/10/03 06:08:16;;;;;;;11.90;7.80;;;;;;;;;;5034196;28;20172;-79
2023/10/03 06:10:42;;;;;;;15.90;8.10;;;;;;;;;;5032850;28;20493;-83
2023/10/03 06:13:11;;;;;;;14.17;7.60;;;;;;;;;;5034045;28;20407;-80
2023/10/03 06:15:43;;;;;;;15.87;8.97;;;;;;;;;;5034082;28;20411;-80
2023/10/03 06:18:09;;;;;;;17.03;9.10;;;;;;;;;;5033584;28;20931;-87
2023/10/03 06:20:35;;;;;;;16.13;9.20;;;;;;;;;;5032523;28;20426;-80
2023/10/03 06:23:04;;;;;;;13.37;8.43;;;;;;;;;;5033860;28;20420;-80
2023/10/03 06:25:30;;;;;;;15.17;8.13;;;;;;;;;;5033776;28;21038;-81
2023/10/03 06:27:56;;;;;;;14.60;8.70;;;;;;;;;;5033710;28;20407;-79
2023/10/03 06:30:26;;;;;;;14.90;8.47;;;;;;;;;;5033752;28;20864;-80
2023/10/03 06:32:52;;;;;;;14.30;7.73;;;;;;;;;;5033558;28;20404;-79
2023/10/03 06:35:18;;;;;;;13.43;8.70;;;;;;;;;;5033271;28;20418;-80
2023/10/03 06:37:44;;;;;;;14.57;9.00;;;;;;;;;;5033736;28;20173;-79
2023/10/03 06:40:13;;;;;;;16.90;8.70;;;;;;;;;;5033524;28;20457;-78
2023/10/03 06:42:40;;;;;;;15.20;7.97;;;;;;;;;;5033467;28;20180;-79
2023/10/03 06:45:09;;;;;;;16.07;8.30;;;;;;;;;;5033440;28;20484;-79
2023/10/03 06:47:35;;;;;;;15.50;8.13;;;;;;;;;;5033353;28;20466;-79
2023/10/03 06:50:05;;;;;;;16.00;8.57;;;;;;;;;;5033085;28;20494;-81
2023/10/03 06:52:32;;;;;;;14.67;8.20;;;;;;;;;;5033365;28;20439;-79
2023/10/03 06:54:58;;;;;;;15.80;8.97;;;;;;;;;;5033611;28;20415;-82
2023/10/03 06:57:24;;;;;;;16.33;8.97;;;;;;;;;;5043753;28;20790;-79
2023/10/03 06:59:50;;;;;;;18.40;10.20;;;;;;;;;;5033093;28;20950;-79
2023/10/03 07:02:18;;;;;;;13.97;8.13;;;;;;;;;;5033215;28;20407;-78
2023/10/03 07:04:53;;;;;;;16.57;9.30;;;;;;;;;;5032839;28;20237;-87
2023/10/03 07:07:18;;;;;;;17.00;8.60;;;;;;;;;;5031846;28;20906;-78
2023/10/03 07:09:44;;;;;;;15.17;8.03;;;;;;;;;;5031797;28;20432;-85
2023/10/03 07:12:11;;;;;;;14.37;8.73;;;;;;;;;;5032441;28;20225;-79
2023/10/03 07:14:37;;;;;;;14.37;8.27;;;;;;;;;;5033039;28;20264;-88
2023/10/03 07:17:03;;;;;;;15.97;8.23;;;;;;;;;;5032952;28;20447;-81
2023/10/03 07:19:30;;;;;;;15.43;8.57;;;;;;;;;;5032626;28;20413;-79
2023/10/03 07:21:59;;;;;;;15.50;9.23;;;;;;;;;;5031744;28;20420;-88
2023/10/03 07:24:28;;;;;;;16.23;8.13;;;;;;;;;;5032827;28;20482;-79
2023/10/03 07:26:54;;;;;;;14.60;8.30;;;;;;;;;;5033031;28;20523;-80
2023/10/03 07:29:21;;;;;;;13.37;7.90;;;;;;;;;;5032802;28;20503;-80
2023/10/03 07:31:48;;;;;;;14.83;9.30;;;;;;;;;;5032915;28;20573;-80
2023/10/03 07:34:17;;;;;;;16.07;8.63;;;;;;;;;;5032464;28;20426;-85
2023/10/03 07:36:43;;;;;;;15.47;7.97;;;;;;;;;;5032883;28;20508;-88
2023/10/03 07:39:10;;;;;;;15.00;8.50;;;;;;;;;;5032812;28;20558;-81
2023/10/03 07:41:36;;;;;;;16.50;10.10;;;;;;;;;;5032820;28;20461;-82
2023/10/03 07:44:05;;;;;;;17.67;9.77;;;;;;;;;;5031418;28;20506;-81
2023/10/03 07:46:31;;;;;;;19.10;10.03;;;;;;;;;;5032717;28;20407;-81
2023/10/03 07:49:01;;;;;;;17.57;8.93;;;;;;;;;;5032361;28;20435;-78
2023/10/03 07:51:29;;;;;;;13.70;8.53;;;;;;;;;;5031472;28;20214;-79
2023/10/03 07:53:55;;;;;;;17.20;9.00;;;;;;;;;;5032639;28;20936;-85
2023/10/03 07:56:25;;;;;;;17.73;8.90;;;;;;;;;;5031349;28;20985;-87
2023/10/03 07:58:54;;;;;;;13.37;8.77;;;;;;;;;;5032695;28;20419;-79
2023/10/03 08:01:27;;;;;;;14.00;8.43;;;;;;;;;;5032511;28;20465;-80
2023/10/03 08:03:56;;;;;;;16.63;8.10;;;;;;;;;;5032146;28;20959;-81
2023/10/03 08:06:23;;;;;;;14.37;7.70;;;;;;;;;;5032635;28;20411;-80
2023/10/03 08:08:52;;;;;;;15.30;8.20;;;;;;;;;;5032490;28;20920;-80
2023/10/03 08:11:18;;;;;;;19.37;11.90;;;;;;;;;;5032667;28;20411;-81
2023/10/03 08:13:50;;;;;;;15.17;9.40;;;;;;;;;;5032505;28;20759;-81
2023/10/03 08:16:16;;;;;;;15.17;9.10;;;;;;;;;;5032460;28;20408;-80
2023/10/03 08:18:46;;;;;;;14.17;9.00;;;;;;;;;;5032149;28;20466;-79
2023/10/03 08:21:13;;;;;;;16.63;10.10;;;;;;;;;;5032684;28;20407;-80
2023/10/03 08:23:39;;;;;;;15.93;9.07;;;;;;;;;;5035113;28;20651;-82
2023/10/03 08:26:05;;;;;;;15.90;9.83;;;;;;;;;;5036086;28;20412;-80
2023/10/03 08:28:34;;;;;;;19.30;8.47;;;;;;;;;;5037116;28;20812;-79
2023/10/03 08:31:06;;;;;;;15.93;9.27;;;;;;;;;;5041669;28;20174;-80
2023/10/03 08:33:36;;;;;;;16.27;9.83;;;;;;;;;;5044077;28;20413;-80
2023/10/03 08:36:02;;;;;;;13.27;8.70;;;;;;;;;;5044896;28;20414;-80
2023/10/03 08:38:28;;;;;;;14.10;8.87;;;;;;;;;;5046156;28;20412;-79
2023/10/03 08:40:55;;;;;;;15.93;9.20;;;;;;;;;;5043604;28;20498;-89
2023/10/03 08:43:25;;;;;;;17.90;10.27;;;;;;;;;;5044108;28;20216;-80
2023/10/03 08:45:55;;;;;;;14.63;8.40;;;;;;;;;;5043850;28;20406;-84
2023/10/03 08:48:24;;;;;;;11.87;8.10;;;;;;;;;;5043355;28;20424;-80
2023/10/03 08:50:53;;;;;;;18.53;9.53;;;;;;;;;;5050928;28;20409;-80
2023/10/03 08:53:28;;;;;;;17.30;8.70;;;;;;;;;;5035571;28;20500;-86
2023/10/03 08:55:58;;;;;;;12.03;8.20;;;;;;;;;;5050702;28;20487;-84
2023/10/03 08:58:25;;;;;;;14.30;7.57;;;;;;;;;;5035490;28;20496;-83
2023/10/03 09:00:58;;;;;;;14.70;8.17;;;;;;;;;;5035189;28;20470;-82
2023/10/03 09:03:25;;;;;;;12.60;7.93;;;;;;;;;;5035024;28;20479;-86
2023/10/03 09:05:51;;;;;;;15.00;7.70;;;;;;;;;;5035353;28;20446;-80
2023/10/03 09:08:17;;;;;;;14.80;7.83;;;;;;;;;;5035320;28;20566;-81
2023/10/03 09:10:55;;;;;;;9.70;5.67;;;;;;;;;;5035264;28;20512;-79
2023/10/03 09:13:24;;;;;;;10.53;6.20;;;;;;;;;;5035215;28;20409;-80
2023/10/03 09:15:59;;;;;;;11.43;6.60;;;;;;;;;;5035240;28;20412;-82
2023/10/03 09:18:25;;;;;;;9.10;5.80;;;;;;;;;;5034852;28;20415;-86
2023/10/03 09:20:52;;;;;;;11.17;6.43;;;;;;;;;;5035002;28;20417;-81
2023/10/03 09:23:18;;;;;;;14.40;6.23;;;;;;;;;;5034854;28;20622;-79
2023/10/03 09:25:55;;;;;;;10.63;7.60;;;;;;;;;;5035051;28;20829;-79
2023/10/03 09:28:27;;;;;;;12.00;7.13;;;;;;;;;;5034901;28;20420;-79
2023/10/03 09:30:55;;;;;;;12.50;6.70;;;;;;;;;;5034918;28;20416;-79
2023/10/03 09:33:22;;;;;;;13.00;7.20;;;;;;;;;;5034510;28;20415;-79
2023/10/03 09:36:00;;;;;;;10.40;6.43;;;;;;;;;;5034150;28;20419;-79
2023/10/03 09:38:38;;;;;;;11.17;6.63;;;;;;;;;;5034707;28;20828;-79
2023/10/03 09:41:04;;;;;;;10.87;6.73;;;;;;;;;;5034762;28;20422;-79
2023/10/03 09:43:30;;;;;;;10.60;7.20;;;;;;;;;;5034534;28;20464;-82
2023/10/03 09:46:00;;;;;;;12.80;7.23;;;;;;;;;;5034616;28;20217;-79
2023/10/03 09:48:26;;;;;;;15.10;7.47;;;;;;;;;;5034156;28;20170;-80
2023/10/03 09:51:05;;;;;;;12.37;7.40;;;;;;;;;;5034503;28;20423;-79
2023/10/03 09:53:32;;;;;;;8.73;4.37;;;;;;;;;;5034404;28;20921;-80
2023/10/03 09:56:08;;;;;;;12.40;6.60;;;;;;;;;;5034283;28;20465;-79
2023/10/03 09:58:34;;;;;;;11.33;6.20;;;;;;;;;;5034376;28;20809;-80
2023/10/03 10:01:00;;;;;;;13.70;6.30;;;;;;;;;;5034079;28;20462;-79
2023/10/03 10:03:29;;;;;;;12.50;6.63;;;;;;;;;;5033876;28;20533;-84
2023/10/03 10:06:14;;;;;;;10.30;5.57;;;;;;;;;;5034135;28;20427;-78
2023/10/03 10:08:48;;;;;;;13.30;5.93;;;;;;;;;;5052540;28;20930;-84
2023/10/03 10:11:14;;;;;;;11.23;5.00;;;;;;;;;;5053705;28;20407;-81
2023/10/03 10:14:00;;;;;;;9.40;4.47;;;;;;;;;;5053700;28;20416;-80
2023/10/03 10:16:28;;;;;;;12.40;4.70;;;;;;;;;;5053045;28;20702;-83
2023/10/03 10:18:55;;;;;;;9.40;4.10;;;;;;;;;;5053564;28;20450;-81
2023/10/03 10:21:21;;;;;;;12.00;4.13;;;;;;;;;;5053912;28;20771;-79
2023/10/03 10:24:06;;;;;;;13.50;4.23;;;;;;;;;;5053723;28;20464;-80
2023/10/03 10:26:34;;;;;;;8.27;3.00;;;;;;;;;;5053944;28;20168;-79
2023/10/03 10:29:08;;;;;;;8.17;3.30;;;;;;;;;;5053731;28;20479;-79
2023/10/03 10:31:44;;;;;;;6.87;3.00;;;;;;;;;;5053549;28;20405;-81
2023/10/03 10:34:22;;;;;;;9.33;2.80;;;;;;;;;;5053303;28;20891;-87
2023/10/03 10:36:56;;;;;;;11.23;3.93;;;;;;;;;;5053612;28;20403;-79
2023/10/03 10:39:25;;;;;;;7.10;3.77;;;;;;;;;;5053475;28;20478;-82
2023/10/03 10:42:09;;;;;;;3.60;2.00;;;;;;;;;;5035554;28;20911;-85
2023/10/03 10:44:35;;;;;;;9.83;2.80;;;;;;;;;;5045008;28;20529;-78
2023/10/03 10:47:05;;;;;;;8.23;2.60;;;;;;;;;;5032486;28;20435;-81
2023/10/03 10:49:33;;;;;;;5.97;2.30;;;;;;;;;;5032843;28;20417;-79
2023/10/03 10:52:01;;;;;;;5.60;2.47;;;;;;;;;;5015339;28;20894;-83
2023/10/03 10:54:27;;;;;;;6.20;2.00;;;;;;;;;;5032845;28;20813;-84
2023/10/03 10:57:03;;;;;;;7.70;2.33;;;;;;;;;;5015248;28;20417;-78
2023/10/03 10:59:31;;;;;;;4.17;1.93;;;;;;;;;;5032859;28;20922;-79
2023/10/03 11:01:57;;;;;;;3.80;2.23;;;;;;;;;;5033237;28;20426;-82
2023/10/03 11:04:27;;;;;;;3.50;1.90;;;;;;;;;;5032756;28;20509;-78
2023/10/03 11:06:53;;;;;;;8.53;2.00;;;;;;;;;;5033152;28;20514;-84
2023/10/03 11:09:20;;;;;;;4.90;1.93;;;;;;;;;;5033117;28;20505;-84
2023/10/03 11:11:46;;;;;;;5.27;1.83;;;;;;;;;;5033187;28;20411;-83
2023/10/03 11:14:12;;;;;;;4.50;1.97;;;;;;;;;;5041730;28;20414;-87
2023/10/03 11:16:38;;;;;;;4.53;2.30;;;;;;;;;;5042528;28;20407;-80
2023/10/03 11:19:06;;;;;;;7.07;2.33;;;;;;;;;;5043011;28;20178;-81
2023/10/03 11:21:33;;;;;;;3.73;1.40;;;;;;;;;;5043613;28;20435;-81
2023/10/03 11:24:14;;;;;;;2.80;1.20;;;;;;;;;;5042571;28;20968;-83
2023/10/03 11:26:45;;;;;;;3.57;2.17;;;;;;;;;;5042625;28;20431;-79
2023/10/03 11:29:11;;;;;;;4.40;2.03;;;;;;;;;;5049864;28;20413;-83
2023/10/03 11:31:38;;;;;;;3.90;1.23;;;;;;;;;;5052733;28;20416;-81
2023/10/03 11:34:05;;;;;;;4.33;2.20;;;;;;;;;;5052440;28;20756;-82
2023/10/03 11:36:41;;;;;;;7.60;2.77;;;;;;;;;;5052825;28;20427;-81
2023/10/03 11:39:07;;;;;;;3.20;1.73;;;;;;;;;;5052794;28;20882;-79
2023/10/03 11:41:33;;;;;;;4.90;2.47;;;;;;;;;;5052668;28;20433;-81
2023/10/03 11:44:00;;;;;;;5.67;1.73;;;;;;;;;;5052579;28;20478;-80
2023/10/03 11:46:26;;;;;;;6.30;2.20;;;;;;;;;;5052711;28;20771;-79
2023/10/03 11:49:01;;;;;;;3.90;1.33;;;;;;;;;;5052375;28;20420;-78
2023/10/03 11:51:29;;;;;;;3.80;1.90;;;;;;;;;;5052762;28;20172;-77
2023/10/03 11:53:55;;;;;;;5.00;1.13;;;;;;;;;;5052661;28;20774;-80
2023/10/03 11:56:21;;;;;;;5.83;1.40;;;;;;;;;;5052607;28;20405;-80
2023/10/03 11:58:47;;;;;;;3.80;0.77;;;;;;;;;;5055759;28;20177;-82
2023/10/03 12:01:12;;;;;;;6.57;1.70;;;;;;;;;;5056398;28;20454;-81
2023/10/03 12:03:38;;;;;;;5.10;1.10;;;;;;;;;;5056144;28;20223;-77
2023/10/03 12:06:04;;;;;;;3.00;0.60;;;;;;;;;;5056429;28;20188;-78
2023/10/03 12:08:32;;;;;;;2.40;0.40;;;;;;;;;;5038488;28;20264;-83
2023/10/03 12:10:58;;;;;;;4.23;0.80;;;;;;;;;;5038365;28;20427;-82
2023/10/03 12:13:24;;;;;;;3.30;0.47;;;;;;;;;;5038515;28;20416;-79
2023/10/03 12:15:50;;;;;;;3.27;0.30;;;;;;;;;;5056260;28;20418;-77
2023/10/03 12:18:16;;;;;;;4.07;0.23;;;;;;;;;;5055902;28;20228;-80
2023/10/03 12:20:44;;;;;;;3.80;0.43;;;;;;;;;;5056103;28;20903;-79
2023/10/03 12:23:10;;;;;;;1.40;0.50;;;;;;;;;;5055981;28;20416;-82
2023/10/03 12:25:36;;;;;;;3.90;0.60;;;;;;;;;;5056054;28;20775;-80
2023/10/03 12:28:02;;;;;;;2.70;0.63;;;;;;;;;;5056034;28;20764;-80
2023/10/03 12:30:28;;;;;;;3.23;0.30;;;;;;;;;;5055957;28;20461;-82
2023/10/03 12:32:54;;;;;;;4.13;0.30;;;;;;;;;;5055562;28;20491;-82
2023/10/03 12:35:21;;;;;;;2.30;0.20;;;;;;;;;;5055826;28;20407;-79
2023/10/03 12:37:48;;;;;;;2.00;0.20;;;;;;;;;;5055639;28;20412;-78
2023/10/03 12:40:17;;;;;;;10.00;1.37;;;;;;;;;;5055614;28;20411;-77
2023/10/03 12:42:44;;;;;;;4.03;0.50;;;;;;;;;;5055749;28;20406;-81
2023/10/03 12:45:16;;;;;;;1.83;0.20;;;;;;;;;;5052951;28;20560;-79
2023/10/03 12:47:49;;;;;;;2.23;0.20;;;;;;;;;;5037366;28;20423;-87
2023/10/03 12:50:15;;;;;;;2.20;0.20;;;;;;;;;;5050005;28;20446;-81
2023/10/03 12:52:42;;;;;;;1.60;0.20;;;;;;;;;;5038100;28;20420;-85
2023/10/03 12:55:09;;;;;;;1.87;0.30;;;;;;;;;;5034480;28;20908;-83
2023/10/03 12:57:36;;;;;;;0.83;0.20;;;;;;;;;;5035357;28;20412;-83
2023/10/03 13:00:02;;;;;;;4.73;0.80;;;;;;;;;;5036273;28;20820;-88
2023/10/03 13:02:28;;;;;;;1.17;0.10;;;;;;;;;;5035748;28;20582;-92
2023/10/03 13:04:56;;;;;;;2.93;0.40;;;;;;;;;;5036107;28;20504;-91
2023/10/03 13:07:22;;;;;;;0.60;0.20;;;;;;;;;;5035527;28;20413;-88
2023/10/03 13:09:48;;;;;;;1.90;0.30;;;;;;;;;;5037654;28;20426;-91
2023/10/03 13:12:14;;;;;;;1.37;0.20;;;;;;;;;;5056009;28;20426;-90
2023/10/03 13:14:40;;;;;;;2.90;0.30;;;;;;;;;;5039925;28;20415;-89
2023/10/03 13:17:09;;;;;;;2.10;0.20;;;;;;;;;;5052458;28;20425;-80
2023/10/03 13:19:41;;;;;;;3.27;0.67;;;;;;;;;;5019021;28;20447;-91
2023/10/03 13:22:08;;;;;;;4.37;0.50;;;;;;;;;;5040746;28;20435;-80
2023/10/03 13:24:34;;;;;;;3.60;0.57;;;;;;;;;;5050460;28;20561;-86
2023/10/03 13:27:02;;;;;;;6.80;0.80;;;;;;;;;;5048635;28;20454;-84
2023/10/03 13:29:28;;;;;;;7.83;0.90;;;;;;;;;;5043463;28;20507;-86
2023/10/03 13:31:54;;;;;;;3.00;0.63;;;;;;;;;;5044881;28;20412;-85
2023/10/03 13:34:20;;;;;;;1.70;0.20;;;;;;;;;;5032493;28;20439;-79
2023/10/03 13:36:47;;;;;;;2.60;0.37;;;;;;;;;;5045839;28;20497;-85
2023/10/03 13:39:13;;;;;;;5.47;0.60;;;;;;;;;;5028242;28;20791;-79
2023/10/03 13:41:42;;;;;;;8.90;0.67;;;;;;;;;;5025630;28;20503;-83
2023/10/03 13:44:09;;;;;;;3.80;0.40;;;;;;;;;;5043565;28;20461;-83
2023/10/03 13:46:35;;;;;;;4.13;0.40;;;;;;;;;;5045353;28;20884;-84
2023/10/03 13:49:01;;;;;;;5.13;0.43;;;;;;;;;;5045755;28;20412;-82
2023/10/03 13:51:31;;;;;;;2.07;0.20;;;;;;;;;;5045472;28;20930;-83
2023/10/03 13:53:57;;;;;;;5.90;0.30;;;;;;;;;;5043302;28;20424;-82
2023/10/03 13:56:23;;;;;;;1.57;0.20;;;;;;;;;;5046576;28;20435;-82
2023/10/03 13:58:49;;;;;;;3.20;0.20;;;;;;;;;;5053856;28;20416;-82
2023/10/03 14:01:16;;;;;;;2.70;0.30;;;;;;;;;;5053921;28;20222;-79
2023/10/03 14:03:43;;;;;;;2.20;0.30;;;;;;;;;;5053692;28;20475;-81
2023/10/03 14:06:19;;;;;;;5.17;0.47;;;;;;;;;;5053896;28;20403;-83
2023/10/03 14:08:45;;;;;;;2.00;0.20;;;;;;;;;;5053972;28;20422;-79
2023/10/03 14:11:18;;;;;;;3.53;0.40;;;;;;;;;;5053859;28;20767;-82
2023/10/03 14:13:43;;;;;;;1.67;0.27;;;;;;;;;;5045230;28;20442;-82
2023/10/03 14:16:09;;;;;;;5.80;0.50;;;;;;;;;;5042732;28;20415;-79
2023/10/03 14:18:35;;;;;;;1.73;0.20;;;;;;;;;;5043911;28;20196;-81
2023/10/03 14:21:10;;;;;;;4.10;0.50;;;;;;;;;;5038786;28;20258;-81
2023/10/03 14:23:35;;;;;;;2.30;0.57;;;;;;;;;;5033947;28;20458;-84
2023/10/03 14:26:02;;;;;;;2.93;0.43;;;;;;;;;;5033711;28;21013;-82
2023/10/03 14:28:28;;;;;;;3.63;0.57;;;;;;;;;;5033720;28;20181;-81
2023/10/03 14:30:54;;;;;;;9.03;1.40;;;;;;;;;;5035466;28;20417;-82
2023/10/03 14:33:19;;;;;;;6.07;0.30;;;;;;;;;;5052609;28;20409;-84
2023/10/03 14:35:48;;;;;;;4.63;0.57;;;;;;;;;;5053639;28;20960;-84
2023/10/03 14:38:14;;;;;;;3.60;0.60;;;;;;;;;;5053362;28;20418;-84
2023/10/03 14:40:40;;;;;;;4.97;0.57;;;;;;;;;;5052646;28;20470;-83